Historyczne dane pomiarowe

Dodano dane terminowe – wersja testowa.

Dane z okresu 1951-2019

Wersja bazy: 1.34 [2019-03-16, lista zmian], aktualizacja planowana na 2019-04-15

Dane meteo z obszaru Polski uzyskane na podstawie danych udostępnionych przez Instytut Meteorologii i Gospodarki Wodnej – Państwowy Instytut Badawczy.

 

Wybierz Datę:    

       

TemperaturaWilgotnośćWiatrCiśnienieOpadyŚniegCzas trwania zjawisk
 Stacja t tx tn tng RH VA  wxwx mslp ppp RRR   cm mm wxwxwxwxwxwxwx
1961-08-14 14.1 19.7 9.9- 77.3- 4.0 1.7---- 0.0------------
1961-08-13 12.6 19.6 11.0- 96.0- 8.0 2.3---- 3.7------------
1961-08-12 20.7 27.2 16.4- 85.0- 4.3 1.0---- 12.8------------
1961-08-11 25.3 32.9 18.7- 66.5- 2.7 5.3---- 0.6------------
1961-08-10 23.7 32.6 16.6- 73.0- 1.7 0.0---- 0.0------------
1961-08-09 22.2 30.1 15.8- 83.5- 3.3 1.0---- 0.5------------
1961-08-08 21.8 27.9 14.7- 82.3- 3.7 1.3---- 0.0------------
1961-08-07 22.7 29.7 14.8- 65.3- 0.7 3.0---- 0.0------------
1961-08-06 21.6 27.8 12.5- 65.5- 0.3 1.7---- 0.0------------
1961-08-05 16.9 22.8 11.6- 80.0- 4.0 3.0---- 0.0------------
1961-08-04 15.9 22.4 13.3- 77.0- 3.7 2.0---- 0.0------------
1961-08-03 17.3 23.5 10.8- 85.0- 4.3 2.0---- 0.0------------
1961-08-02 17.9 25.8 8.7- 74.5- 0.0 1.3---- 0.0------------
1961-08-01 15.2 20.9 9.3- 80.3- 2.0 3.0---- 0.0------------
1961-07-31 13.5 17.5 9.8- 82.0- 6.3 4.7---- 0.0------------
1961-07-30 11.2 12.5 10.3- 93.0- 8.0 2.3---- 10.8------------
1961-07-29 13.5 22.1 11.6- 95.0- 8.0 3.0---- 28.0------------
1961-07-28 22.4 28.6 17.2- 59.8- 5.0 3.3---- 0.1------------
1961-07-27 20.6 25.8 10.3- 62.0- 2.3 3.3---- 0.1------------
1961-07-26 14.1 20.8 6.8- 76.3- 4.0 1.0---- 0.0------------
1961-07-25 12.4 16.7 8.8- 79.0- 6.0 0.7---- 0.0------------
1961-07-24 14.3 17.6 12.7- 79.5- 7.3 1.0---- 0.0------------
1961-07-23 16.5 21.8 8.8- 76.0- 5.3 1.3---- 1.2------------
1961-07-22 14.4 18.6 11.5- 87.3- 6.0 1.7---- 0.0------------
1961-07-21 13.7 19.3 8.6- 87.0- 5.0 0.0---- 7.7------------
1961-07-20 13.5 17.7 7.3- 88.0- 7.3 2.0---- 10.6------------
1961-07-19 13.0 20.7 7.0- 84.3- 7.0 0.3---- 2.1------------
1961-07-18 14.4 20.4 10.7- 73.0- 2.3 1.3---- 0.0------------
1961-07-17 15.9 22.5 13.1- 83.0- 4.3 1.0---- 0.0------------
1961-07-16 18.2 26.0 11.8- 81.8- 5.3 2.3---- 1.6------------
1961-07-15 17.4 23.2 7.5- 69.3- 3.0 3.0---- 0.0------------
1961-07-14 14.0 18.7 11.8- 85.3- 5.3 2.3---- 4.8------------
1961-07-13 20.8 28.8 13.8- 72.0- 3.3 5.0---- 0.6------------
1961-07-12 19.9 26.4 8.5- 60.3- 2.7 4.0---- 0.0------------
1961-07-11 14.7 20.4 6.9- 68.8- 3.7 0.3---- 0.0------------
1961-07-10 13.8 19.9 11.3- 79.3- 7.0 2.0---- 0.6------------
1961-07-09 15.1 23.6 6.9- 77.8- 3.7 2.7---- 0.3------------
1961-07-08 15.2 20.4 10.3- 72.3- 2.3 1.0---- 0.0------------
1961-07-07 13.0 19.1 4.4- 70.8- 5.0 0.3---- 0.0------------
1961-07-06 12.9 17.5 8.6- 70.8- 1.7 1.3---- 0.0------------
1961-07-05 14.7 21.2 12.4- 79.0- 7.7 2.0---- 1.1------------
1961-07-04 22.5 30.6 12.6- 65.0- 2.7 1.0---- 0.0------------
1961-07-03 20.3 29.6 9.5- 62.5- 0.0 0.7---- 0.0------------
1961-07-02 19.0 26.6 9.8- 73.3- 0.0 0.7---- 0.0------------
1961-07-01 17.9 25.1 8.7- 74.5- 2.0 1.0---- 0.0------------
1961-06-30 15.7 21.0 9.8- 81.8- 4.0 1.0---- 0.0------------
1961-06-29 13.5 17.6 5.4- 87.0- 4.7 1.0---- 0.0------------
1961-06-28 13.7 24.4 10.5- 94.5- 5.3 1.7---- 14.1------------
1961-06-27 24.5 29.9 14.4- 59.0- 1.3 3.3---- 2.5------------
1961-06-26 22.3 29.4 14.9- 78.3- 2.3 2.0---- 0.0------------
1961-06-25 21.7 27.3 9.6- 60.5- 0.0 2.0---- 0.0------------
1961-06-24 19.0 24.8 10.1- 67.8- 2.3 2.3---- 0.0------------
1961-06-23 17.3 21.9 12.1- 82.3- 5.3 2.0---- 1.2------------
1961-06-22 17.8 25.0 9.4- 75.8- 0.7 0.3---- 2.2------------
1961-06-21 16.5 23.2 6.5- 71.5- 0.7 0.7---- 0.0------------
1961-06-20 15.4 19.5 13.5- 64.8- 1.3 2.0---- 0.0------------
1961-06-19 20.0 27.7 10.8- 83.8- 3.3 2.0---- 7.7------------
1961-06-18 18.5 24.6 7.5- 61.5- 2.0 1.3---- 0.0------------
1961-06-17 13.9 20.7 5.7- 74.5- 0.0 1.0---- 0.0------------
1961-06-16 13.6 18.8 10.8- 73.3- 1.0 1.7---- 0.0------------
395.2 ms

 

Źródłem pochodzenia danych jest Instytut Meteorologii i Gospodarki Wodnej – Państwowy Instytut Badawczy. Dane Instytutu Meteorologii i Gospodarki Wodnej – Państwowego Instytutu Badawczego zostały przetworzone.

Dane źródłowe można odnaleźć na stronie https://dane.imgw.pl